sensor_id;sensor_type;location;lat;lon;timestamp;temperature;humidity
1704;DHT22;849;48.780;9.216;2023-03-20T00:00:28;13.40;99.90
1704;DHT22;849;48.780;9.216;2023-03-20T00:02:55;13.50;99.90
1704;DHT22;849;48.780;9.216;2023-03-20T00:05:22;13.50;99.90
1704;DHT22;849;48.780;9.216;2023-03-20T00:07:49;13.70;99.90
1704;DHT22;849;48.780;9.216;2023-03-20T00:10:19;13.60;99.90
1704;DHT22;849;48.780;9.216;2023-03-20T00:12:46;13.50;99.90
1704;DHT22;849;48.780;9.216;2023-03-20T00:17:53;13.40;99.90
1704;DHT22;849;48.780;9.216;2023-03-20T00:20:19;13.50;99.90
1704;DHT22;849;48.780;9.216;2023-03-20T00:22:45;13.60;99.90
1704;DHT22;849;48.780;9.216;2023-03-20T00:25:15;13.60;99.90
1704;DHT22;849;48.780;9.216;2023-03-20T00:27:42;13.60;99.90
1704;DHT22;849;48.780;9.216;2023-03-20T00:30:28;13.60;99.90
1704;DHT22;849;48.780;9.216;2023-03-20T00:32:56;13.60;99.90
1704;DHT22;849;48.780;9.216;2023-03-20T00:35:28;13.60;99.90
1704;DHT22;849;48.780;9.216;2023-03-20T00:37:58;13.60;99.90
1704;DHT22;849;48.780;9.216;2023-03-20T00:40:30;13.50;99.90
1704;DHT22;849;48.780;9.216;2023-03-20T00:42:59;13.40;99.90
1704;DHT22;849;48.780;9.216;2023-03-20T00:45:26;13.40;99.90
1704;DHT22;849;48.780;9.216;2023-03-20T00:47:53;13.20;99.90
1704;DHT22;849;48.780;9.216;2023-03-20T00:50:22;13.30;99.90
1704;DHT22;849;48.780;9.216;2023-03-20T00:52:50;13.30;99.90
1704;DHT22;849;48.780;9.216;2023-03-20T00:55:17;13.30;99.90
1704;DHT22;849;48.780;9.216;2023-03-20T00:57:50;13.20;99.90
1704;DHT22;849;48.780;9.216;2023-03-20T01:03:23;13.20;99.90
1704;DHT22;849;48.780;9.216;2023-03-20T01:05:50;13.20;99.90
1704;DHT22;849;48.780;9.216;2023-03-20T01:08:21;13.20;99.90
1704;DHT22;849;48.780;9.216;2023-03-20T01:10:53;13.20;99.90
1704;DHT22;849;48.780;9.216;2023-03-20T01:13:25;13.20;99.90
1704;DHT22;849;48.780;9.216;2023-03-20T01:15:52;13.20;99.90
1704;DHT22;849;48.780;9.216;2023-03-20T01:18:22;13.10;99.90
1704;DHT22;849;48.780;9.216;2023-03-20T01:20:49;13.20;99.90
1704;DHT22;849;48.780;9.216;2023-03-20T01:23:17;13.20;99.90
1704;DHT22;849;48.780;9.216;2023-03-20T01:25:43;13.30;99.90
1704;DHT22;849;48.780;9.216;2023-03-20T01:28:21;13.20;99.90
1704;DHT22;849;48.780;9.216;2023-03-20T01:30:47;13.30;99.90
1704;DHT22;849;48.780;9.216;2023-03-20T01:33:21;13.30;99.90
1704;DHT22;849;48.780;9.216;2023-03-20T01:35:49;13.30;99.90
1704;DHT22;849;48.780;9.216;2023-03-20T01:38:23;13.30;99.90
1704;DHT22;849;48.780;9.216;2023-03-20T01:40:57;13.30;99.90
1704;DHT22;849;48.780;9.216;2023-03-20T01:43:24;13.30;99.90
1704;DHT22;849;48.780;9.216;2023-03-20T01:48:24;13.10;99.90
1704;DHT22;849;48.780;9.216;2023-03-20T01:50:51;13.20;99.90
1704;DHT22;849;48.780;9.216;2023-03-20T01:53:20;13.20;99.90
1704;DHT22;849;48.780;9.216;2023-03-20T01:55:49;13.10;99.90
1704;DHT22;849;48.780;9.216;2023-03-20T01:58:20;13.10;99.90
1704;DHT22;849;48.780;9.216;2023-03-20T02:00:47;13.10;99.90
1704;DHT22;849;48.780;9.216;2023-03-20T02:03:16;13.10;99.90
1704;DHT22;849;48.780;9.216;2023-03-20T02:05:43;13.10;99.90
1704;DHT22;849;48.780;9.216;2023-03-20T02:08:28;13.20;99.90
1704;DHT22;849;48.780;9.216;2023-03-20T02:10:56;13.30;99.90
1704;DHT22;849;48.780;9.216;2023-03-20T02:13:28;13.20;99.90
1704;DHT22;849;48.780;9.216;2023-03-20T02:16:16;13.30;99.90
1704;DHT22;849;48.780;9.216;2023-03-20T02:18:43;13.20;99.90
1704;DHT22;849;48.780;9.216;2023-03-20T02:24:55;13.00;99.90
1704;DHT22;849;48.780;9.216;2023-03-20T02:27:40;13.00;99.90
1704;DHT22;849;48.780;9.216;2023-03-20T02:36:09;12.90;99.90
1704;DHT22;849;48.780;9.216;2023-03-20T02:41:58;12.70;99.90
1704;DHT22;849;48.780;9.216;2023-03-20T02:44:36;12.80;99.90
1704;DHT22;849;48.780;9.216;2023-03-20T02:49:39;12.80;99.90
1704;DHT22;849;48.780;9.216;2023-03-20T02:57:49;12.90;99.90
1704;DHT22;849;48.780;9.216;2023-03-20T03:02:56;12.80;99.90
1704;DHT22;849;48.780;9.216;2023-03-20T03:08:12;12.80;99.90
1704;DHT22;849;48.780;9.216;2023-03-20T03:10:44;12.80;99.90
1704;DHT22;849;48.780;9.216;2023-03-20T03:13:19;12.90;99.90
1704;DHT22;849;48.780;9.216;2023-03-20T03:15:48;12.90;99.90
1704;DHT22;849;48.780;9.216;2023-03-20T03:18:19;12.80;99.90
1704;DHT22;849;48.780;9.216;2023-03-20T03:20:47;12.80;99.90
1704;DHT22;849;48.780;9.216;2023-03-20T03:23:26;12.80;99.90
1704;DHT22;849;48.780;9.216;2023-03-20T03:25:54;12.80;99.90
1704;DHT22;849;48.780;9.216;2023-03-20T03:31:03;12.90;99.90
1704;DHT22;849;48.780;9.216;2023-03-20T03:33:31;12.90;99.90
1704;DHT22;849;48.780;9.216;2023-03-20T03:36:24;12.80;99.90
1704;DHT22;849;48.780;9.216;2023-03-20T03:41:47;12.70;99.90
1704;DHT22;849;48.780;9.216;2023-03-20T03:44:48;12.60;99.90
1704;DHT22;849;48.780;9.216;2023-03-20T03:47:30;12.60;99.90
1704;DHT22;849;48.780;9.216;2023-03-20T03:50:05;12.60;99.90
1704;DHT22;849;48.780;9.216;2023-03-20T03:52:35;12.70;99.90
1704;DHT22;849;48.780;9.216;2023-03-20T03:55:18;12.60;99.90
1704;DHT22;849;48.780;9.216;2023-03-20T03:58:07;12.70;99.90
1704;DHT22;849;48.780;9.216;2023-03-20T04:00:34;12.70;99.90
1704;DHT22;849;48.780;9.216;2023-03-20T04:03:02;12.70;99.90
1704;DHT22;849;48.780;9.216;2023-03-20T04:05:31;12.70;99.90
1704;DHT22;849;48.780;9.216;2023-03-20T04:08:01;12.80;99.90
1704;DHT22;849;48.780;9.216;2023-03-20T04:10:27;12.80;99.90
1704;DHT22;849;48.780;9.216;2023-03-20T04:12:53;12.80;99.90
1704;DHT22;849;48.780;9.216;2023-03-20T04:15:18;12.80;99.90
1704;DHT22;849;48.780;9.216;2023-03-20T04:17:46;12.80;99.90
1704;DHT22;849;48.780;9.216;2023-03-20T04:20:13;12.80;99.90
1704;DHT22;849;48.780;9.216;2023-03-20T04:22:40;12.90;99.90
1704;DHT22;849;48.780;9.216;2023-03-20T04:25:08;12.90;99.90
1704;DHT22;849;48.780;9.216;2023-03-20T04:27:34;12.90;99.90
1704;DHT22;849;48.780;9.216;2023-03-20T04:30:01;12.90;99.90
1704;DHT22;849;48.780;9.216;2023-03-20T04:32:27;12.90;99.90
1704;DHT22;849;48.780;9.216;2023-03-20T04:34:53;12.90;99.90
1704;DHT22;849;48.780;9.216;2023-03-20T04:37:18;12.80;99.90
1704;DHT22;849;48.780;9.216;2023-03-20T04:39:44;12.80;99.90
1704;DHT22;849;48.780;9.216;2023-03-20T04:42:09;12.70;99.90
1704;DHT22;849;48.780;9.216;2023-03-20T04:44:36;12.70;99.90
1704;DHT22;849;48.780;9.216;2023-03-20T04:47:01;12.70;99.90
1704;DHT22;849;48.780;9.216;2023-03-20T04:49:27;12.70;99.90
1704;DHT22;849;48.780;9.216;2023-03-20T04:51:54;12.60;99.90
1704;DHT22;849;48.780;9.216;2023-03-20T04:54:20;12.60;99.90
1704;DHT22;849;48.780;9.216;2023-03-20T04:56:46;12.60;99.90
1704;DHT22;849;48.780;9.216;2023-03-20T04:59:12;12.70;99.90
1704;DHT22;849;48.780;9.216;2023-03-20T05:01:38;12.70;99.90
1704;DHT22;849;48.780;9.216;2023-03-20T05:04:03;12.60;99.90
1704;DHT22;849;48.780;9.216;2023-03-20T05:06:30;12.40;99.90
1704;DHT22;849;48.780;9.216;2023-03-20T05:08:59;12.40;99.90
1704;DHT22;849;48.780;9.216;2023-03-20T05:11:26;12.50;99.90
1704;DHT22;849;48.780;9.216;2023-03-20T05:13:52;12.50;99.90
1704;DHT22;849;48.780;9.216;2023-03-20T05:16:18;12.60;99.90
1704;DHT22;849;48.780;9.216;2023-03-20T05:18:44;12.60;99.90
1704;DHT22;849;48.780;9.216;2023-03-20T05:21:10;12.60;99.90
1704;DHT22;849;48.780;9.216;2023-03-20T05:23:35;12.70;99.90
1704;DHT22;849;48.780;9.216;2023-03-20T05:26:01;12.60;99.90
1704;DHT22;849;48.780;9.216;2023-03-20T05:28:27;12.60;99.90
1704;DHT22;849;48.780;9.216;2023-03-20T05:30:53;12.60;99.90
1704;DHT22;849;48.780;9.216;2023-03-20T05:33:19;12.70;99.90
1704;DHT22;849;48.780;9.216;2023-03-20T05:35:45;12.60;99.90
1704;DHT22;849;48.780;9.216;2023-03-20T05:38:11;12.60;99.90
1704;DHT22;849;48.780;9.216;2023-03-20T05:40:37;12.60;99.90
1704;DHT22;849;48.780;9.216;2023-03-20T05:43:02;12.50;99.90
1704;DHT22;849;48.780;9.216;2023-03-20T05:45:29;12.50;99.90
1704;DHT22;849;48.780;9.216;2023-03-20T05:47:54;12.60;99.90
1704;DHT22;849;48.780;9.216;2023-03-20T05:50:20;12.50;99.90
1704;DHT22;849;48.780;9.216;2023-03-20T05:52:47;12.50;99.90
1704;DHT22;849;48.780;9.216;2023-03-20T05:55:13;12.50;99.90
1704;DHT22;849;48.780;9.216;2023-03-20T05:57:39;12.50;99.90
1704;DHT22;849;48.780;9.216;2023-03-20T06:00:06;12.50;99.90
1704;DHT22;849;48.780;9.216;2023-03-20T06:02:33;12.40;99.90
1704;DHT22;849;48.780;9.216;2023-03-20T06:04:58;12.50;99.90
1704;DHT22;849;48.780;9.216;2023-03-20T06:07:24;12.70;99.90
1704;DHT22;849;48.780;9.216;2023-03-20T06:09:50;12.80;99.90
1704;DHT22;849;48.780;9.216;2023-03-20T06:12:16;12.80;99.90
1704;DHT22;849;48.780;9.216;2023-03-20T06:14:42;12.90;99.90
1704;DHT22;849;48.780;9.216;2023-03-20T06:17:08;12.80;99.90
1704;DHT22;849;48.780;9.216;2023-03-20T06:19:33;12.80;99.90
1704;DHT22;849;48.780;9.216;2023-03-20T06:21:59;12.70;99.90
1704;DHT22;849;48.780;9.216;2023-03-20T06:24:25;12.80;99.90
1704;DHT22;849;48.780;9.216;2023-03-20T06:26:51;12.70;99.90
1704;DHT22;849;48.780;9.216;2023-03-20T06:29:16;12.60;99.90
1704;DHT22;849;48.780;9.216;2023-03-20T06:31:42;12.60;99.90
1704;DHT22;849;48.780;9.216;2023-03-20T06:34:08;12.70;99.90
1704;DHT22;849;48.780;9.216;2023-03-20T06:36:34;12.70;99.90
1704;DHT22;849;48.780;9.216;2023-03-20T06:39:00;12.70;99.90
1704;DHT22;849;48.780;9.216;2023-03-20T06:41:26;12.60;99.90
1704;DHT22;849;48.780;9.216;2023-03-20T06:43:51;12.50;99.90
1704;DHT22;849;48.780;9.216;2023-03-20T06:46:17;12.60;99.90
1704;DHT22;849;48.780;9.216;2023-03-20T06:48:42;12.80;99.90
1704;DHT22;849;48.780;9.216;2023-03-20T06:51:08;12.90;99.90
1704;DHT22;849;48.780;9.216;2023-03-20T06:53:34;13.00;99.90
1704;DHT22;849;48.780;9.216;2023-03-20T06:56:00;12.90;99.90
1704;DHT22;849;48.780;9.216;2023-03-20T06:58:25;12.90;99.90
1704;DHT22;849;48.780;9.216;2023-03-20T07:00:51;13.10;99.90
1704;DHT22;849;48.780;9.216;2023-03-20T07:03:19;13.20;99.90
1704;DHT22;849;48.780;9.216;2023-03-20T07:05:45;13.10;99.90
1704;DHT22;849;48.780;9.216;2023-03-20T07:08:10;13.00;99.90
1704;DHT22;849;48.780;9.216;2023-03-20T07:10:36;13.10;99.90
1704;DHT22;849;48.780;9.216;2023-03-20T07:13:03;13.20;99.90
1704;DHT22;849;48.780;9.216;2023-03-20T07:15:28;13.30;99.90
1704;DHT22;849;48.780;9.216;2023-03-20T07:17:54;13.20;99.90
1704;DHT22;849;48.780;9.216;2023-03-20T07:20:20;13.20;99.90
1704;DHT22;849;48.780;9.216;2023-03-20T07:22:47;13.20;99.90
1704;DHT22;849;48.780;9.216;2023-03-20T07:25:13;13.40;99.90
1704;DHT22;849;48.780;9.216;2023-03-20T07:27:38;13.30;99.90
1704;DHT22;849;48.780;9.216;2023-03-20T07:30:05;13.10;99.90
1704;DHT22;849;48.780;9.216;2023-03-20T07:32:31;13.00;99.90
1704;DHT22;849;48.780;9.216;2023-03-20T07:34:57;12.90;99.90
1704;DHT22;849;48.780;9.216;2023-03-20T07:37:22;12.50;99.90
1704;DHT22;849;48.780;9.216;2023-03-20T07:39:48;12.60;99.90
1704;DHT22;849;48.780;9.216;2023-03-20T07:42:14;12.90;99.90
1704;DHT22;849;48.780;9.216;2023-03-20T07:44:40;13.00;99.90
1704;DHT22;849;48.780;9.216;2023-03-20T07:47:06;13.30;99.90
1704;DHT22;849;48.780;9.216;2023-03-20T07:49:32;13.50;99.90
1704;DHT22;849;48.780;9.216;2023-03-20T07:51:58;13.50;99.90
1704;DHT22;849;48.780;9.216;2023-03-20T07:54:24;13.70;99.90
1704;DHT22;849;48.780;9.216;2023-03-20T07:56:50;13.70;99.90
1704;DHT22;849;48.780;9.216;2023-03-20T07:59:16;13.70;99.90
1704;DHT22;849;48.780;9.216;2023-03-20T08:01:42;13.70;99.90
1704;DHT22;849;48.780;9.216;2023-03-20T08:04:07;13.60;99.90
1704;DHT22;849;48.780;9.216;2023-03-20T08:06:33;13.80;99.90
1704;DHT22;849;48.780;9.216;2023-03-20T08:08:59;13.60;99.90
1704;DHT22;849;48.780;9.216;2023-03-20T08:11:25;13.80;99.90
1704;DHT22;849;48.780;9.216;2023-03-20T08:13:51;14.00;99.90
1704;DHT22;849;48.780;9.216;2023-03-20T08:16:16;14.00;99.90
1704;DHT22;849;48.780;9.216;2023-03-20T08:18:42;14.10;99.90
1704;DHT22;849;48.780;9.216;2023-03-20T08:21:08;13.90;99.90
1704;DHT22;849;48.780;9.216;2023-03-20T08:23:33;13.40;99.90
1704;DHT22;849;48.780;9.216;2023-03-20T08:25:59;13.30;99.90
1704;DHT22;849;48.780;9.216;2023-03-20T08:28:25;13.50;99.90
1704;DHT22;849;48.780;9.216;2023-03-20T08:30:51;13.60;99.90
1704;DHT22;849;48.780;9.216;2023-03-20T08:33:17;13.80;99.90
1704;DHT22;849;48.780;9.216;2023-03-20T08:35:43;13.90;99.90
1704;DHT22;849;48.780;9.216;2023-03-20T08:38:12;14.00;99.90
1704;DHT22;849;48.780;9.216;2023-03-20T08:40:41;14.10;99.90
1704;DHT22;849;48.780;9.216;2023-03-20T08:43:07;14.30;99.90
1704;DHT22;849;48.780;9.216;2023-03-20T08:45:33;13.80;99.90
1704;DHT22;849;48.780;9.216;2023-03-20T08:47:58;13.50;99.90
1704;DHT22;849;48.780;9.216;2023-03-20T08:50:24;13.40;99.90
1704;DHT22;849;48.780;9.216;2023-03-20T08:52:50;13.60;99.90
1704;DHT22;849;48.780;9.216;2023-03-20T08:55:16;13.90;99.90
1704;DHT22;849;48.780;9.216;2023-03-20T08:57:42;14.10;99.90
1704;DHT22;849;48.780;9.216;2023-03-20T09:00:09;14.20;99.90
1704;DHT22;849;48.780;9.216;2023-03-20T09:02:36;14.30;99.90
1704;DHT22;849;48.780;9.216;2023-03-20T09:05:02;14.40;99.90
1704;DHT22;849;48.780;9.216;2023-03-20T09:07:28;13.80;99.90
1704;DHT22;849;48.780;9.216;2023-03-20T09:09:53;13.70;99.90
1704;DHT22;849;48.780;9.216;2023-03-20T09:12:19;13.30;99.90
1704;DHT22;849;48.780;9.216;2023-03-20T09:14:45;13.50;99.90
1704;DHT22;849;48.780;9.216;2023-03-20T09:17:10;13.80;99.90
1704;DHT22;849;48.780;9.216;2023-03-20T09:19:36;13.90;99.90
1704;DHT22;849;48.780;9.216;2023-03-20T09:22:08;13.90;99.90
1704;DHT22;849;48.780;9.216;2023-03-20T09:24:35;13.90;99.90
1704;DHT22;849;48.780;9.216;2023-03-20T09:27:01;14.00;99.90
1704;DHT22;849;48.780;9.216;2023-03-20T09:29:26;14.20;99.90
1704;DHT22;849;48.780;9.216;2023-03-20T09:31:52;14.00;99.90
1704;DHT22;849;48.780;9.216;2023-03-20T09:34:18;14.20;99.90
1704;DHT22;849;48.780;9.216;2023-03-20T09:36:44;14.30;99.90
1704;DHT22;849;48.780;9.216;2023-03-20T09:39:10;14.40;99.90
1704;DHT22;849;48.780;9.216;2023-03-20T09:41:36;13.80;99.90
1704;DHT22;849;48.780;9.216;2023-03-20T09:44:26;13.60;99.90
1704;DHT22;849;48.780;9.216;2023-03-20T09:55:29;14.00;99.90
1704;DHT22;849;48.780;9.216;2023-03-20T09:57:40;14.00;99.90
1704;DHT22;849;48.780;9.216;2023-03-20T10:00:16;14.40;99.90
1704;DHT22;849;48.780;9.216;2023-03-20T10:03:09;14.10;99.90
1704;DHT22;849;48.780;9.216;2023-03-20T10:05:47;14.20;99.90
1704;DHT22;849;48.780;9.216;2023-03-20T10:08:15;14.30;99.90
1704;DHT22;849;48.780;9.216;2023-03-20T10:22:01;14.00;99.90
1704;DHT22;849;48.780;9.216;2023-03-20T10:24:46;14.30;99.90
1704;DHT22;849;48.780;9.216;2023-03-20T10:27:23;14.30;99.90
1704;DHT22;849;48.780;9.216;2023-03-20T10:33:12;14.40;99.90
1704;DHT22;849;48.780;9.216;2023-03-20T10:41:20;14.80;99.90
1704;DHT22;849;48.780;9.216;2023-03-20T10:43:48;14.70;99.90
1704;DHT22;849;48.780;9.216;2023-03-20T10:46:26;14.70;99.90
1704;DHT22;849;48.780;9.216;2023-03-20T10:49:34;14.80;99.90
1704;DHT22;849;48.780;9.216;2023-03-20T10:51:59;14.30;99.90
1704;DHT22;849;48.780;9.216;2023-03-20T10:54:45;13.70;99.90
1704;DHT22;849;48.780;9.216;2023-03-20T10:57:23;13.80;99.90
1704;DHT22;849;48.780;9.216;2023-03-20T10:59:51;13.80;99.90
1704;DHT22;849;48.780;9.216;2023-03-20T11:02:19;13.80;99.90
1704;DHT22;849;48.780;9.216;2023-03-20T11:04:46;14.00;99.90
1704;DHT22;849;48.780;9.216;2023-03-20T11:07:20;14.20;99.90
1704;DHT22;849;48.780;9.216;2023-03-20T11:10:07;14.20;99.90
1704;DHT22;849;48.780;9.216;2023-03-20T11:12:35;14.00;99.90
1704;DHT22;849;48.780;9.216;2023-03-20T11:20:17;13.70;99.90
1704;DHT22;849;48.780;9.216;2023-03-20T11:22:42;13.80;99.90
1704;DHT22;849;48.780;9.216;2023-03-20T11:25:22;13.90;99.90
1704;DHT22;849;48.780;9.216;2023-03-20T11:27:49;14.00;99.90
1704;DHT22;849;48.780;9.216;2023-03-20T11:30:15;13.90;99.90
1704;DHT22;849;48.780;9.216;2023-03-20T11:32:47;13.90;99.90
1704;DHT22;849;48.780;9.216;2023-03-20T11:35:25;14.10;99.90
1704;DHT22;849;48.780;9.216;2023-03-20T11:37:53;13.80;99.90
1704;DHT22;849;48.780;9.216;2023-03-20T11:40:30;13.30;99.90
1704;DHT22;849;48.780;9.216;2023-03-20T11:43:04;13.50;99.90
1704;DHT22;849;48.780;9.216;2023-03-20T11:45:45;13.80;99.90
1704;DHT22;849;48.780;9.216;2023-03-20T11:48:16;13.60;99.90
1704;DHT22;849;48.780;9.216;2023-03-20T11:50:47;13.70;99.90
1704;DHT22;849;48.780;9.216;2023-03-20T11:56:01;13.60;99.90
1704;DHT22;849;48.780;9.216;2023-03-20T11:58:27;13.90;99.90
1704;DHT22;849;48.780;9.216;2023-03-20T12:00:56;14.10;99.90
1704;DHT22;849;48.780;9.216;2023-03-20T12:06:01;14.20;99.90
1704;DHT22;849;48.780;9.216;2023-03-20T12:08:31;14.30;99.90
1704;DHT22;849;48.780;9.216;2023-03-20T12:11:20;14.20;99.90
1704;DHT22;849;48.780;9.216;2023-03-20T12:13:49;14.20;99.90
1704;DHT22;849;48.780;9.216;2023-03-20T12:16:18;14.10;99.90
1704;DHT22;849;48.780;9.216;2023-03-20T12:18:49;14.00;99.90
1704;DHT22;849;48.780;9.216;2023-03-20T12:21:37;14.50;99.90
1704;DHT22;849;48.780;9.216;2023-03-20T12:31:50;14.50;99.90
1704;DHT22;849;48.780;9.216;2023-03-20T12:34:24;14.50;99.90
1704;DHT22;849;48.780;9.216;2023-03-20T12:36:54;14.60;99.90
1704;DHT22;849;48.780;9.216;2023-03-20T12:39:35;14.80;99.90
1704;DHT22;849;48.780;9.216;2023-03-20T12:42:07;14.80;99.90
1704;DHT22;849;48.780;9.216;2023-03-20T12:50:40;14.90;99.90
1704;DHT22;849;48.780;9.216;2023-03-20T13:04:13;15.40;99.90
1704;DHT22;849;48.780;9.216;2023-03-20T13:06:55;15.50;99.90
1704;DHT22;849;48.780;9.216;2023-03-20T13:10:04;15.30;99.90
1704;DHT22;849;48.780;9.216;2023-03-20T13:20:56;15.10;99.90
1704;DHT22;849;48.780;9.216;2023-03-20T13:29:14;15.40;99.90
1704;DHT22;849;48.780;9.216;2023-03-20T13:31:50;15.70;99.90
1704;DHT22;849;48.780;9.216;2023-03-20T13:34:36;15.90;99.90
1704;DHT22;849;48.780;9.216;2023-03-20T13:37:27;15.80;99.90
1704;DHT22;849;48.780;9.216;2023-03-20T13:45:40;14.60;99.90
1704;DHT22;849;48.780;9.216;2023-03-20T13:51:09;14.50;99.90
1704;DHT22;849;48.780;9.216;2023-03-20T13:54:10;14.70;99.90
1704;DHT22;849;48.780;9.216;2023-03-20T14:02:10;15.00;99.90
1704;DHT22;849;48.780;9.216;2023-03-20T14:04:39;15.30;99.90
1704;DHT22;849;48.780;9.216;2023-03-20T14:07:29;15.40;99.90
1704;DHT22;849;48.780;9.216;2023-03-20T14:10:31;15.10;99.90
1704;DHT22;849;48.780;9.216;2023-03-20T14:13:04;15.10;99.90
1704;DHT22;849;48.780;9.216;2023-03-20T14:15:35;15.30;99.90
1704;DHT22;849;48.780;9.216;2023-03-20T14:18:06;15.00;99.80
1704;DHT22;849;48.780;9.216;2023-03-20T14:20:39;14.80;99.90
1704;DHT22;849;48.780;9.216;2023-03-20T14:23:06;14.70;99.90
1704;DHT22;849;48.780;9.216;2023-03-20T14:25:41;14.80;99.90
1704;DHT22;849;48.780;9.216;2023-03-20T14:28:22;15.00;99.90
1704;DHT22;849;48.780;9.216;2023-03-20T14:30:49;15.30;99.90
1704;DHT22;849;48.780;9.216;2023-03-20T14:36:09;15.60;99.90
1704;DHT22;849;48.780;9.216;2023-03-20T14:41:28;15.40;99.90
1704;DHT22;849;48.780;9.216;2023-03-20T14:44:18;15.70;99.90
1704;DHT22;849;48.780;9.216;2023-03-20T14:49:22;15.70;99.60
1704;DHT22;849;48.780;9.216;2023-03-20T14:51:51;15.80;99.90
1704;DHT22;849;48.780;9.216;2023-03-20T14:56:47;16.10;99.90
1704;DHT22;849;48.780;9.216;2023-03-20T14:59:15;16.10;99.90
1704;DHT22;849;48.780;9.216;2023-03-20T15:04:27;16.10;98.90
1704;DHT22;849;48.780;9.216;2023-03-20T15:07:00;16.30;99.50
1704;DHT22;849;48.780;9.216;2023-03-20T15:09:29;16.20;99.40
1704;DHT22;849;48.780;9.216;2023-03-20T15:11:57;16.20;99.60
1704;DHT22;849;48.780;9.216;2023-03-20T15:14:37;16.20;99.90
1704;DHT22;849;48.780;9.216;2023-03-20T15:17:14;16.20;99.90
1704;DHT22;849;48.780;9.216;2023-03-20T15:19:40;16.20;99.30
1704;DHT22;849;48.780;9.216;2023-03-20T15:22:15;16.20;99.90
1704;DHT22;849;48.780;9.216;2023-03-20T15:24:41;16.20;98.70
1704;DHT22;849;48.780;9.216;2023-03-20T15:27:10;16.10;98.80
1704;DHT22;849;48.780;9.216;2023-03-20T15:29:36;16.20;98.80
1704;DHT22;849;48.780;9.216;2023-03-20T15:32:02;16.20;98.10
1704;DHT22;849;48.780;9.216;2023-03-20T15:34:30;16.20;98.30
1704;DHT22;849;48.780;9.216;2023-03-20T15:36:59;16.40;97.80
1704;DHT22;849;48.780;9.216;2023-03-20T15:39:29;16.40;98.50
1704;DHT22;849;48.780;9.216;2023-03-20T15:42:11;16.30;97.20
1704;DHT22;849;48.780;9.216;2023-03-20T15:44:38;16.40;97.50
1704;DHT22;849;48.780;9.216;2023-03-20T15:47:16;16.40;97.40
1704;DHT22;849;48.780;9.216;2023-03-20T15:50:05;16.30;97.00
1704;DHT22;849;48.780;9.216;2023-03-20T15:52:42;16.20;97.10
1704;DHT22;849;48.780;9.216;2023-03-20T15:55:16;16.20;96.90
1704;DHT22;849;48.780;9.216;2023-03-20T15:57:43;16.30;96.90
1704;DHT22;849;48.780;9.216;2023-03-20T16:00:16;16.30;96.40
1704;DHT22;849;48.780;9.216;2023-03-20T16:02:44;16.30;96.80
1704;DHT22;849;48.780;9.216;2023-03-20T16:05:13;16.30;97.00
1704;DHT22;849;48.780;9.216;2023-03-20T16:07:39;16.30;96.80
1704;DHT22;849;48.780;9.216;2023-03-20T16:10:30;16.40;96.30
1704;DHT22;849;48.780;9.216;2023-03-20T16:12:58;16.30;95.90
1704;DHT22;849;48.780;9.216;2023-03-20T16:15:26;15.90;96.80
1704;DHT22;849;48.780;9.216;2023-03-20T16:17:59;15.40;95.20
1704;DHT22;849;48.780;9.216;2023-03-20T16:20:34;15.10;94.80
1704;DHT22;849;48.780;9.216;2023-03-20T16:23:06;15.30;95.30
1704;DHT22;849;48.780;9.216;2023-03-20T16:25:34;15.30;94.60
1704;DHT22;849;48.780;9.216;2023-03-20T16:28:03;15.60;93.90
1704;DHT22;849;48.780;9.216;2023-03-20T16:30:32;15.70;93.60
1704;DHT22;849;48.780;9.216;2023-03-20T16:33:07;15.70;94.70
1704;DHT22;849;48.780;9.216;2023-03-20T16:35:42;15.60;92.50
1704;DHT22;849;48.780;9.216;2023-03-20T16:38:24;15.40;92.20
1704;DHT22;849;48.780;9.216;2023-03-20T16:40:55;15.50;92.70
1704;DHT22;849;48.780;9.216;2023-03-20T16:43:26;15.70;92.40
1704;DHT22;849;48.780;9.216;2023-03-20T16:45:56;15.70;92.00
1704;DHT22;849;48.780;9.216;2023-03-20T16:50:55;15.40;92.10
1704;DHT22;849;48.780;9.216;2023-03-20T16:53:21;14.90;92.10
1704;DHT22;849;48.780;9.216;2023-03-20T16:55:51;15.00;93.20
1704;DHT22;849;48.780;9.216;2023-03-20T16:58:21;15.20;93.00
1704;DHT22;849;48.780;9.216;2023-03-20T17:01:02;15.40;93.40
1704;DHT22;849;48.780;9.216;2023-03-20T17:03:37;15.60;92.80
1704;DHT22;849;48.780;9.216;2023-03-20T17:13:52;15.80;90.80
1704;DHT22;849;48.780;9.216;2023-03-20T17:16:20;15.70;90.50
1704;DHT22;849;48.780;9.216;2023-03-20T17:18:49;15.60;90.60
1704;DHT22;849;48.780;9.216;2023-03-20T17:21:22;15.60;90.20
1704;DHT22;849;48.780;9.216;2023-03-20T17:23:48;15.60;91.40
1704;DHT22;849;48.780;9.216;2023-03-20T17:26:13;15.60;91.10
1704;DHT22;849;48.780;9.216;2023-03-20T17:28:39;15.60;91.30
1704;DHT22;849;48.780;9.216;2023-03-20T17:31:17;15.50;91.10
1704;DHT22;849;48.780;9.216;2023-03-20T17:33:44;15.40;91.70
1704;DHT22;849;48.780;9.216;2023-03-20T17:36:15;15.40;91.80
1704;DHT22;849;48.780;9.216;2023-03-20T17:38:43;15.40;93.00
1704;DHT22;849;48.780;9.216;2023-03-20T17:41:15;15.50;94.50
1704;DHT22;849;48.780;9.216;2023-03-20T17:43:41;15.50;93.90
1704;DHT22;849;48.780;9.216;2023-03-20T17:46:22;15.50;94.70
1704;DHT22;849;48.780;9.216;2023-03-20T17:48:57;15.50;95.10
1704;DHT22;849;48.780;9.216;2023-03-20T17:51:24;15.40;95.00
1704;DHT22;849;48.780;9.216;2023-03-20T17:53:49;15.30;94.20
1704;DHT22;849;48.780;9.216;2023-03-20T17:56:21;15.30;94.40
1704;DHT22;849;48.780;9.216;2023-03-20T17:58:47;15.20;94.10
1704;DHT22;849;48.780;9.216;2023-03-20T18:01:13;14.90;95.10
1704;DHT22;849;48.780;9.216;2023-03-20T18:03:39;14.90;93.80
1704;DHT22;849;48.780;9.216;2023-03-20T18:06:06;14.80;94.60
1704;DHT22;849;48.780;9.216;2023-03-20T18:08:32;14.80;92.80
1704;DHT22;849;48.780;9.216;2023-03-20T18:10:58;14.80;92.90
1704;DHT22;849;48.780;9.216;2023-03-20T18:13:25;14.90;93.00
1704;DHT22;849;48.780;9.216;2023-03-20T18:15:53;14.90;92.90
1704;DHT22;849;48.780;9.216;2023-03-20T18:18:21;14.80;92.50
1704;DHT22;849;48.780;9.216;2023-03-20T18:20:47;14.70;92.10
1704;DHT22;849;48.780;9.216;2023-03-20T18:23:14;14.80;92.40
1704;DHT22;849;48.780;9.216;2023-03-20T18:25:40;14.90;92.20
1704;DHT22;849;48.780;9.216;2023-03-20T18:28:10;14.80;92.40
1704;DHT22;849;48.780;9.216;2023-03-20T18:30:39;14.80;93.10
1704;DHT22;849;48.780;9.216;2023-03-20T18:33:06;14.90;93.90
1704;DHT22;849;48.780;9.216;2023-03-20T18:35:33;14.90;94.60
1704;DHT22;849;48.780;9.216;2023-03-20T18:38:01;14.90;94.60
1704;DHT22;849;48.780;9.216;2023-03-20T18:40:35;15.00;94.60
1704;DHT22;849;48.780;9.216;2023-03-20T18:43:01;15.00;95.30
1704;DHT22;849;48.780;9.216;2023-03-20T18:45:28;15.00;96.10
1704;DHT22;849;48.780;9.216;2023-03-20T18:47:55;14.90;96.60
1704;DHT22;849;48.780;9.216;2023-03-20T18:50:36;15.00;97.40
1704;DHT22;849;48.780;9.216;2023-03-20T18:53:02;15.00;97.00
1704;DHT22;849;48.780;9.216;2023-03-20T18:55:29;15.00;96.50
1704;DHT22;849;48.780;9.216;2023-03-20T18:57:56;15.10;97.40
1704;DHT22;849;48.780;9.216;2023-03-20T19:00:29;15.10;97.50
1704;DHT22;849;48.780;9.216;2023-03-20T19:02:56;15.10;97.70
1704;DHT22;849;48.780;9.216;2023-03-20T19:05:24;15.00;98.20
1704;DHT22;849;48.780;9.216;2023-03-20T19:07:50;15.00;98.20
1704;DHT22;849;48.780;9.216;2023-03-20T19:10:24;14.70;98.20